Historyczne dane pomiarowe

Dodano dane terminowe – wersja testowa.

Dane z okresu 1951-2019

Wersja bazy: 1.34 [2019-03-16, lista zmian], aktualizacja planowana na 2019-04-15

Dane meteo z obszaru Polski uzyskane na podstawie danych udostępnionych przez Instytut Meteorologii i Gospodarki Wodnej – Państwowy Instytut Badawczy.

 

Wybierz Datę:    

       

TemperaturaWilgotnośćWiatrCiśnienieOpadyŚniegCzas trwania zjawisk
 Stacja t tx tn tng RH VA  wxwx mslp ppp RRR   cm mm wxwxwxwxwxwxwx
1987-08-14 15.2 19.6 9.4 7.8 79.8- 5.7 5.7---- 12.6------------
1987-08-13 14.4 19.6 10.3 7.6 80.3- 5.0 2.0---- 0.0------------
1987-08-12 12.9 17.3 7.0 6.2 79.8- 3.0 5.3---- 0.2------------
1987-08-11 13.1 16.3 11.3 10.2 83.5- 6.0 3.0---- 0.2------------
1987-08-10 13.7 16.5 13.1 12.3 95.0- 7.7 2.7---- 9.2------------
1987-08-09 15.1 20.9 10.3 8.1 75.8- 7.0 2.7---- 8.5------------
1987-08-08 12.9 21.8 5.0 4.5 75.0- 4.7 4.3---- 0.0------------
1987-08-07 12.9 18.2 8.6 7.9 74.0- 5.3 5.0---- 0.0------------
1987-08-06 11.9 15.2 9.0 7.1 88.5- 8.0 3.0---- 12.0------------
1987-08-05 12.0 15.6 9.2 8.5 84.0- 7.3 5.0---- 0.4------------
1987-08-04 12.7 17.1 10.3 8.6 85.3- 5.0 3.3---- 0.6------------
1987-08-03 12.4 18.0 9.0 8.5 83.3- 7.0 4.3---- 6.2------------
1987-08-02 12.1 18.1 9.1 8.5 87.3- 6.3 3.3---- 4.2------------
1987-08-01 15.4 19.1 13.1 12.2 87.0- 7.3 4.3---- 2.3------------
1987-07-31 15.7 17.5 14.9 15.0 78.5- 7.7 2.0---- 0.0------------
1987-07-30 14.9 19.2 9.8 8.5 80.0- 5.3 1.0---- 4.5------------
1987-07-29 13.8 17.3 11.1 10.2 78.8- 7.0 3.0---- 0.0------------
1987-07-28 14.2 20.3 9.4 8.9 80.0- 7.3 1.7---- 0.0------------
1987-07-27 12.2 16.2 8.1 7.5 76.3- 7.3 7.0---- 0.5------------
1987-07-26 13.0 18.4 6.4 6.3 73.0- 3.7 5.0---- 0.5------------
1987-07-25 15.8 19.4 13.4 12.1 78.0- 5.7 5.0---- 0.0------------
1987-07-24 18.4 23.6 13.9 14.4 82.8- 5.0 3.7---- 1.2------------
1987-07-23 17.1 21.8 14.1 13.5 86.0- 5.3 1.3---- 0.0------------
1987-07-22 17.8 23.8 13.3 13.9 83.3- 5.0 0.7---- 0.1------------
1987-07-21 17.3 22.0 12.5 12.5 83.3- 3.3 0.7---- 0.4------------
1987-07-20 16.0 18.1 14.8 5.0 93.0- 8.0 1.0---- 5.6------------
1987-07-19 17.5 21.7 15.3 14.3 86.0- 5.3 2.7---- 30.8------------
1987-07-18 19.9 24.3 15.7 14.9 77.8- 5.0 3.7---- 0.0------------
1987-07-17 19.4 24.6 13.0 10.2 67.3- 4.3 3.7---- 0.0------------
1987-07-16 16.6 23.0 7.6 5.3 73.0- 2.0 2.3---- 0.0------------
1987-07-15 14.0 20.3 6.6 6.0 79.5- 3.0 2.3---- 0.0------------
1987-07-14 15.7 19.2 12.3 12.0 73.3- 3.0 4.3---- 0.0------------
1987-07-13 14.4 18.3 10.8 10.4 81.5- 6.3 5.0---- 0.8------------
1987-07-12 16.5 19.6 13.4 14.0 89.8- 7.7 5.0---- 3.9------------
1987-07-11 11.8 15.2 8.5 7.5 91.8- 8.0 2.7---- 5.2------------
1987-07-10 13.8 18.3 9.8 9.5 72.5- 4.3 5.7---- 0.2------------
1987-07-09 16.1 20.6 11.7 13.0 78.8- 5.0 1.7---- 6.0------------
1987-07-08 19.7 28.3 12.5 9.5 74.0- 4.0 3.0---- 5.6------------
1987-07-07 18.5 26.0 8.4 7.3 69.0- 0.3 3.0---- 0.0------------
1987-07-06 15.4 24.6 5.6 4.2 70.3- 0.0 1.7---- 0.0------------
1987-07-05 13.5 18.7 6.3 5.6 78.8- 0.7 3.0---- 0.0------------
1987-07-04 13.6 19.4 8.8 6.8 81.0- 4.7 2.3---- 0.0------------
1987-07-03 14.5 19.9 7.3 5.5 74.8- 1.0 1.7---- 0.3------------
1987-07-02 16.0 20.8 10.2 8.5 79.0- 1.0 2.0---- 0.0------------
1987-07-01 20.5 26.3 16.9 17.0 83.5- 5.3 1.7---- 0.0------------
1987-06-30 21.8 27.5 17.0 12.5 80.5- 3.3 2.0---- 0.0------------
1987-06-29 16.1 22.0 7.1 7.0 84.3- 7.0 3.0---- 0.0------------
1987-06-28 13.7 17.9 11.2 10.8 82.5- 3.7 2.0---- 0.5------------
1987-06-27 15.1 19.6 12.7 11.4 74.8- 6.0 2.3---- 3.7------------
1987-06-26 14.4 19.8 6.6 5.2 78.5- 4.7 3.0---- 0.0------------
1987-06-25 13.5 17.7 9.5 8.2 77.8- 7.3 1.7---- 6.2------------
1987-06-24 14.5 18.2 10.9 10.1 83.5- 7.3 3.3---- 1.5------------
1987-06-23 14.1 18.2 10.6 10.2 85.8- 6.3 1.7---- 7.0------------
1987-06-22 15.0 19.6 12.3 13.3 85.5- 7.3 2.0---- 0.0------------
1987-06-21 18.8 23.8 13.5 10.5 66.3- 2.7 3.7---- 0.1------------
1987-06-20 15.4 21.3 8.3 5.8 71.5- 2.3 3.0---- 0.0------------
1987-06-19 12.2 16.0 7.7 6.9 76.8- 4.7 5.0---- 0.0------------
1987-06-18 11.0 16.8 5.3 4.5 74.0- 2.7 4.3---- 0.4------------
1987-06-17 12.4 14.8 10.1 9.4 69.0- 4.3 6.0---- 0.0------------
1987-06-16 12.7 18.7 10.3 11.0 90.5- 8.0 5.3---- 3.2------------
2309.8 ms

 

Źródłem pochodzenia danych jest Instytut Meteorologii i Gospodarki Wodnej – Państwowy Instytut Badawczy. Dane Instytutu Meteorologii i Gospodarki Wodnej – Państwowego Instytutu Badawczego zostały przetworzone.

Dane źródłowe można odnaleźć na stronie https://dane.imgw.pl